sensor_id;sensor_type;location;lat;lon;timestamp;temperature;humidity
3734;HTU21D;1882;52.256;8.874;2024-01-30T00:00:31;6.40;85.00
3734;HTU21D;1882;52.256;8.874;2024-01-30T00:02:58;6.40;85.00
3734;HTU21D;1882;52.256;8.874;2024-01-30T00:05:25;6.40;84.50
3734;HTU21D;1882;52.256;8.874;2024-01-30T00:07:52;6.50;85.20
3734;HTU21D;1882;52.256;8.874;2024-01-30T00:10:19;6.50;85.40
3734;HTU21D;1882;52.256;8.874;2024-01-30T00:12:47;6.60;85.00
3734;HTU21D;1882;52.256;8.874;2024-01-30T00:15:14;6.50;84.70
3734;HTU21D;1882;52.256;8.874;2024-01-30T00:17:41;6.60;84.60
3734;HTU21D;1882;52.256;8.874;2024-01-30T00:20:09;6.50;84.90
3734;HTU21D;1882;52.256;8.874;2024-01-30T00:22:36;6.50;84.90
3734;HTU21D;1882;52.256;8.874;2024-01-30T00:25:03;6.40;84.70
3734;HTU21D;1882;52.256;8.874;2024-01-30T00:27:31;6.40;85.00
3734;HTU21D;1882;52.256;8.874;2024-01-30T00:29:58;6.40;85.30
3734;HTU21D;1882;52.256;8.874;2024-01-30T00:32:25;6.40;85.20
3734;HTU21D;1882;52.256;8.874;2024-01-30T00:34:51;6.40;85.10
3734;HTU21D;1882;52.256;8.874;2024-01-30T00:37:19;6.40;85.40
3734;HTU21D;1882;52.256;8.874;2024-01-30T00:39:46;6.40;85.70
3734;HTU21D;1882;52.256;8.874;2024-01-30T00:42:13;6.30;85.50
3734;HTU21D;1882;52.256;8.874;2024-01-30T00:44:39;6.30;86.30
3734;HTU21D;1882;52.256;8.874;2024-01-30T00:47:06;6.20;86.40
3734;HTU21D;1882;52.256;8.874;2024-01-30T00:49:34;6.20;86.20
3734;HTU21D;1882;52.256;8.874;2024-01-30T00:52:01;6.20;86.90
3734;HTU21D;1882;52.256;8.874;2024-01-30T00:54:28;6.20;86.80
3734;HTU21D;1882;52.256;8.874;2024-01-30T00:56:54;6.20;86.50
3734;HTU21D;1882;52.256;8.874;2024-01-30T00:59:21;6.20;86.30
3734;HTU21D;1882;52.256;8.874;2024-01-30T01:01:48;6.20;86.20
3734;HTU21D;1882;52.256;8.874;2024-01-30T01:04:16;6.10;86.80
3734;HTU21D;1882;52.256;8.874;2024-01-30T01:06:44;6.10;87.30
3734;HTU21D;1882;52.256;8.874;2024-01-30T01:09:11;6.10;88.10
3734;HTU21D;1882;52.256;8.874;2024-01-30T01:11:39;6.00;88.30
3734;HTU21D;1882;52.256;8.874;2024-01-30T01:14:06;6.00;88.40
3734;HTU21D;1882;52.256;8.874;2024-01-30T01:16:33;6.00;88.20
3734;HTU21D;1882;52.256;8.874;2024-01-30T01:19:01;6.10;89.10
3734;HTU21D;1882;52.256;8.874;2024-01-30T01:21:28;6.10;88.70
3734;HTU21D;1882;52.256;8.874;2024-01-30T01:23:55;6.10;88.10
3734;HTU21D;1882;52.256;8.874;2024-01-30T01:26:23;6.20;89.40
3734;HTU21D;1882;52.256;8.874;2024-01-30T01:28:50;6.20;89.10
3734;HTU21D;1882;52.256;8.874;2024-01-30T01:31:17;6.20;88.50
3734;HTU21D;1882;52.256;8.874;2024-01-30T01:33:45;6.30;88.70
3734;HTU21D;1882;52.256;8.874;2024-01-30T01:36:13;6.40;89.90
3734;HTU21D;1882;52.256;8.874;2024-01-30T01:38:40;6.40;88.20
3734;HTU21D;1882;52.256;8.874;2024-01-30T01:41:07;6.40;87.60
3734;HTU21D;1882;52.256;8.874;2024-01-30T01:43:34;6.50;88.90
3734;HTU21D;1882;52.256;8.874;2024-01-30T01:46:02;6.50;88.30
3734;HTU21D;1882;52.256;8.874;2024-01-30T01:48:29;6.60;88.00
3734;HTU21D;1882;52.256;8.874;2024-01-30T01:50:57;6.60;87.20
3734;HTU21D;1882;52.256;8.874;2024-01-30T01:53:24;6.70;87.30
3734;HTU21D;1882;52.256;8.874;2024-01-30T01:55:52;6.60;87.50
3734;HTU21D;1882;52.256;8.874;2024-01-30T01:58:19;6.70;87.10
3734;HTU21D;1882;52.256;8.874;2024-01-30T02:00:47;6.70;87.20
3734;HTU21D;1882;52.256;8.874;2024-01-30T02:03:18;6.70;87.30
3734;HTU21D;1882;52.256;8.874;2024-01-30T02:05:50;6.70;87.30
3734;HTU21D;1882;52.256;8.874;2024-01-30T02:08:17;6.70;86.60
3734;HTU21D;1882;52.256;8.874;2024-01-30T02:10:44;6.70;86.80
3734;HTU21D;1882;52.256;8.874;2024-01-30T02:13:11;6.80;87.40
3734;HTU21D;1882;52.256;8.874;2024-01-30T02:15:38;6.80;86.40
3734;HTU21D;1882;52.256;8.874;2024-01-30T02:18:05;6.80;86.30
3734;HTU21D;1882;52.256;8.874;2024-01-30T02:20:35;6.80;85.70
3734;HTU21D;1882;52.256;8.874;2024-01-30T02:23:02;6.80;86.50
3734;HTU21D;1882;52.256;8.874;2024-01-30T02:25:39;6.90;87.10
3734;HTU21D;1882;52.256;8.874;2024-01-30T02:28:11;6.90;86.50
3734;HTU21D;1882;52.256;8.874;2024-01-30T02:30:39;6.90;86.50
3734;HTU21D;1882;52.256;8.874;2024-01-30T02:33:06;6.80;87.40
3734;HTU21D;1882;52.256;8.874;2024-01-30T02:35:33;6.90;87.10
3734;HTU21D;1882;52.256;8.874;2024-01-30T02:38:01;6.90;86.90
3734;HTU21D;1882;52.256;8.874;2024-01-30T02:40:27;6.90;87.30
3734;HTU21D;1882;52.256;8.874;2024-01-30T02:42:54;6.90;87.50
3734;HTU21D;1882;52.256;8.874;2024-01-30T02:45:21;6.80;86.80
3734;HTU21D;1882;52.256;8.874;2024-01-30T02:47:48;6.80;87.20
3734;HTU21D;1882;52.256;8.874;2024-01-30T02:50:15;6.90;87.50
3734;HTU21D;1882;52.256;8.874;2024-01-30T02:52:43;6.90;87.50
3734;HTU21D;1882;52.256;8.874;2024-01-30T02:55:13;6.90;87.20
3734;HTU21D;1882;52.256;8.874;2024-01-30T02:57:40;6.90;87.50
3734;HTU21D;1882;52.256;8.874;2024-01-30T03:00:07;6.90;87.50
3734;HTU21D;1882;52.256;8.874;2024-01-30T03:02:36;6.80;87.40
3734;HTU21D;1882;52.256;8.874;2024-01-30T03:05:05;6.80;87.40
3734;HTU21D;1882;52.256;8.874;2024-01-30T03:07:32;6.80;87.60
3734;HTU21D;1882;52.256;8.874;2024-01-30T03:10:00;6.80;87.80
3734;HTU21D;1882;52.256;8.874;2024-01-30T03:12:27;6.80;88.10
3734;HTU21D;1882;52.256;8.874;2024-01-30T03:14:54;6.80;87.50
3734;HTU21D;1882;52.256;8.874;2024-01-30T03:17:21;6.70;87.80
3734;HTU21D;1882;52.256;8.874;2024-01-30T03:19:48;6.70;90.00
3734;HTU21D;1882;52.256;8.874;2024-01-30T03:22:15;6.70;88.80
3734;HTU21D;1882;52.256;8.874;2024-01-30T03:24:42;6.80;89.50
3734;HTU21D;1882;52.256;8.874;2024-01-30T03:27:10;6.90;89.60
3734;HTU21D;1882;52.256;8.874;2024-01-30T03:29:38;7.00;88.90
3734;HTU21D;1882;52.256;8.874;2024-01-30T03:32:05;7.10;88.60
3734;HTU21D;1882;52.256;8.874;2024-01-30T03:34:32;7.10;88.20
3734;HTU21D;1882;52.256;8.874;2024-01-30T03:36:59;7.10;88.20
3734;HTU21D;1882;52.256;8.874;2024-01-30T03:39:26;7.20;88.70
3734;HTU21D;1882;52.256;8.874;2024-01-30T03:41:53;7.20;88.10
3734;HTU21D;1882;52.256;8.874;2024-01-30T03:44:20;7.20;88.00
3734;HTU21D;1882;52.256;8.874;2024-01-30T03:46:47;7.20;88.20
3734;HTU21D;1882;52.256;8.874;2024-01-30T03:49:16;7.30;87.20
3734;HTU21D;1882;52.256;8.874;2024-01-30T03:51:43;7.20;86.60
3734;HTU21D;1882;52.256;8.874;2024-01-30T03:54:10;7.20;86.50
3734;HTU21D;1882;52.256;8.874;2024-01-30T03:56:37;7.10;86.90
3734;HTU21D;1882;52.256;8.874;2024-01-30T03:59:03;7.10;87.50
3734;HTU21D;1882;52.256;8.874;2024-01-30T04:01:30;7.10;87.50
3734;HTU21D;1882;52.256;8.874;2024-01-30T04:03:58;7.00;87.90
3734;HTU21D;1882;52.256;8.874;2024-01-30T04:06:25;7.10;88.00
3734;HTU21D;1882;52.256;8.874;2024-01-30T04:08:52;7.10;88.10
3734;HTU21D;1882;52.256;8.874;2024-01-30T04:11:19;7.00;87.60
3734;HTU21D;1882;52.256;8.874;2024-01-30T04:13:46;7.00;88.20
3734;HTU21D;1882;52.256;8.874;2024-01-30T04:16:21;7.10;88.30
3734;HTU21D;1882;52.256;8.874;2024-01-30T04:18:51;7.10;87.80
3734;HTU21D;1882;52.256;8.874;2024-01-30T04:21:20;7.10;87.30
3734;HTU21D;1882;52.256;8.874;2024-01-30T04:23:48;7.00;87.60
3734;HTU21D;1882;52.256;8.874;2024-01-30T04:26:15;7.00;87.60
3734;HTU21D;1882;52.256;8.874;2024-01-30T04:28:43;6.80;85.80
3734;HTU21D;1882;52.256;8.874;2024-01-30T04:31:11;6.60;87.20
3734;HTU21D;1882;52.256;8.874;2024-01-30T04:33:38;6.50;88.30
3734;HTU21D;1882;52.256;8.874;2024-01-30T04:36:07;6.50;90.00
3734;HTU21D;1882;52.256;8.874;2024-01-30T04:38:35;6.60;90.50
3734;HTU21D;1882;52.256;8.874;2024-01-30T04:41:02;6.70;89.90
3734;HTU21D;1882;52.256;8.874;2024-01-30T04:43:29;6.80;89.70
3734;HTU21D;1882;52.256;8.874;2024-01-30T04:45:57;6.90;88.90
3734;HTU21D;1882;52.256;8.874;2024-01-30T04:48:24;6.90;89.00
3734;HTU21D;1882;52.256;8.874;2024-01-30T04:50:51;7.00;88.70
3734;HTU21D;1882;52.256;8.874;2024-01-30T04:53:17;6.90;87.60
3734;HTU21D;1882;52.256;8.874;2024-01-30T04:55:45;6.90;87.30
3734;HTU21D;1882;52.256;8.874;2024-01-30T04:58:12;6.80;89.40
3734;HTU21D;1882;52.256;8.874;2024-01-30T05:00:39;6.80;88.60
3734;HTU21D;1882;52.256;8.874;2024-01-30T05:03:06;6.80;90.10
3734;HTU21D;1882;52.256;8.874;2024-01-30T05:05:33;6.80;89.60
3734;HTU21D;1882;52.256;8.874;2024-01-30T05:08:00;6.90;88.80
3734;HTU21D;1882;52.256;8.874;2024-01-30T05:10:27;6.90;89.70
3734;HTU21D;1882;52.256;8.874;2024-01-30T05:12:55;6.90;89.30
3734;HTU21D;1882;52.256;8.874;2024-01-30T05:15:22;7.00;88.80
3734;HTU21D;1882;52.256;8.874;2024-01-30T05:17:49;6.90;88.70
3734;HTU21D;1882;52.256;8.874;2024-01-30T05:20:16;6.80;88.50
3734;HTU21D;1882;52.256;8.874;2024-01-30T05:22:44;6.80;88.90
3734;HTU21D;1882;52.256;8.874;2024-01-30T05:25:13;6.70;89.00
3734;HTU21D;1882;52.256;8.874;2024-01-30T05:27:40;6.70;89.30
3734;HTU21D;1882;52.256;8.874;2024-01-30T05:30:07;6.70;89.70
3734;HTU21D;1882;52.256;8.874;2024-01-30T05:32:34;6.80;89.60
3734;HTU21D;1882;52.256;8.874;2024-01-30T05:35:01;6.80;89.00
3734;HTU21D;1882;52.256;8.874;2024-01-30T05:37:28;6.90;89.20
3734;HTU21D;1882;52.256;8.874;2024-01-30T05:39:55;6.90;89.00
3734;HTU21D;1882;52.256;8.874;2024-01-30T05:42:23;7.00;88.50
3734;HTU21D;1882;52.256;8.874;2024-01-30T05:44:50;7.00;88.00
3734;HTU21D;1882;52.256;8.874;2024-01-30T05:47:17;7.00;88.20
3734;HTU21D;1882;52.256;8.874;2024-01-30T05:49:44;7.00;87.60
3734;HTU21D;1882;52.256;8.874;2024-01-30T05:52:11;7.00;88.40
3734;HTU21D;1882;52.256;8.874;2024-01-30T05:54:38;7.10;88.60
3734;HTU21D;1882;52.256;8.874;2024-01-30T05:57:05;7.20;89.00
3734;HTU21D;1882;52.256;8.874;2024-01-30T05:59:32;7.20;87.80
3734;HTU21D;1882;52.256;8.874;2024-01-30T06:01:59;7.20;88.00
3734;HTU21D;1882;52.256;8.874;2024-01-30T06:04:26;7.20;87.80
3734;HTU21D;1882;52.256;8.874;2024-01-30T06:06:53;7.30;87.80
3734;HTU21D;1882;52.256;8.874;2024-01-30T06:09:20;7.40;87.60
3734;HTU21D;1882;52.256;8.874;2024-01-30T06:11:47;7.40;87.30
3734;HTU21D;1882;52.256;8.874;2024-01-30T06:14:14;7.40;87.30
3734;HTU21D;1882;52.256;8.874;2024-01-30T06:16:40;7.50;87.30
3734;HTU21D;1882;52.256;8.874;2024-01-30T06:19:07;7.40;86.90
3734;HTU21D;1882;52.256;8.874;2024-01-30T06:21:34;7.40;86.30
3734;HTU21D;1882;52.256;8.874;2024-01-30T06:24:03;7.30;86.70
3734;HTU21D;1882;52.256;8.874;2024-01-30T06:26:30;7.20;87.20
3734;HTU21D;1882;52.256;8.874;2024-01-30T06:28:57;7.20;87.10
3734;HTU21D;1882;52.256;8.874;2024-01-30T06:31:24;7.20;87.20
3734;HTU21D;1882;52.256;8.874;2024-01-30T06:33:51;7.20;87.20
3734;HTU21D;1882;52.256;8.874;2024-01-30T06:36:18;7.30;87.10
3734;HTU21D;1882;52.256;8.874;2024-01-30T06:38:45;7.30;87.00
3734;HTU21D;1882;52.256;8.874;2024-01-30T06:41:12;7.30;86.40
3734;HTU21D;1882;52.256;8.874;2024-01-30T06:43:39;7.30;86.30
3734;HTU21D;1882;52.256;8.874;2024-01-30T06:46:06;7.30;86.50
3734;HTU21D;1882;52.256;8.874;2024-01-30T06:48:33;7.20;86.10
3734;HTU21D;1882;52.256;8.874;2024-01-30T06:50:59;7.20;86.10
3734;HTU21D;1882;52.256;8.874;2024-01-30T06:53:26;7.20;86.30
3734;HTU21D;1882;52.256;8.874;2024-01-30T06:55:53;7.10;86.60
3734;HTU21D;1882;52.256;8.874;2024-01-30T06:58:20;7.10;87.00
3734;HTU21D;1882;52.256;8.874;2024-01-30T07:00:47;7.10;86.70
3734;HTU21D;1882;52.256;8.874;2024-01-30T07:03:14;7.10;87.20
3734;HTU21D;1882;52.256;8.874;2024-01-30T07:05:41;7.20;86.80
3734;HTU21D;1882;52.256;8.874;2024-01-30T07:08:08;7.20;86.60
3734;HTU21D;1882;52.256;8.874;2024-01-30T07:10:35;7.20;87.00
3734;HTU21D;1882;52.256;8.874;2024-01-30T07:13:02;7.20;86.80
3734;HTU21D;1882;52.256;8.874;2024-01-30T07:15:30;7.20;86.90
3734;HTU21D;1882;52.256;8.874;2024-01-30T07:17:57;7.20;87.70
3734;HTU21D;1882;52.256;8.874;2024-01-30T07:20:24;7.30;86.70
3734;HTU21D;1882;52.256;8.874;2024-01-30T07:22:51;7.20;86.90
3734;HTU21D;1882;52.256;8.874;2024-01-30T07:25:18;7.20;86.70
3734;HTU21D;1882;52.256;8.874;2024-01-30T07:27:45;7.20;87.10
3734;HTU21D;1882;52.256;8.874;2024-01-30T07:30:12;7.20;86.90
3734;HTU21D;1882;52.256;8.874;2024-01-30T07:32:39;7.30;86.60
3734;HTU21D;1882;52.256;8.874;2024-01-30T07:35:06;7.30;86.60
3734;HTU21D;1882;52.256;8.874;2024-01-30T07:37:35;7.30;86.50
3734;HTU21D;1882;52.256;8.874;2024-01-30T07:40:03;7.20;87.30
3734;HTU21D;1882;52.256;8.874;2024-01-30T07:42:31;7.10;87.20
3734;HTU21D;1882;52.256;8.874;2024-01-30T07:44:58;7.30;87.30
3734;HTU21D;1882;52.256;8.874;2024-01-30T07:47:25;7.20;87.00
3734;HTU21D;1882;52.256;8.874;2024-01-30T07:49:52;7.30;87.00
3734;HTU21D;1882;52.256;8.874;2024-01-30T07:52:21;7.30;86.60
3734;HTU21D;1882;52.256;8.874;2024-01-30T07:54:48;7.30;86.50
3734;HTU21D;1882;52.256;8.874;2024-01-30T07:57:16;7.40;86.20
3734;HTU21D;1882;52.256;8.874;2024-01-30T07:59:44;7.40;86.10
3734;HTU21D;1882;52.256;8.874;2024-01-30T08:02:14;7.50;86.00
3734;HTU21D;1882;52.256;8.874;2024-01-30T08:04:42;7.50;85.90
3734;HTU21D;1882;52.256;8.874;2024-01-30T08:07:09;7.60;85.80
3734;HTU21D;1882;52.256;8.874;2024-01-30T08:09:36;7.60;86.10
3734;HTU21D;1882;52.256;8.874;2024-01-30T08:12:03;7.70;85.70
3734;HTU21D;1882;52.256;8.874;2024-01-30T08:14:31;7.70;86.30
3734;HTU21D;1882;52.256;8.874;2024-01-30T08:16:58;7.80;85.30
3734;HTU21D;1882;52.256;8.874;2024-01-30T08:19:24;7.80;85.10
3734;HTU21D;1882;52.256;8.874;2024-01-30T08:21:52;7.90;85.10
3734;HTU21D;1882;52.256;8.874;2024-01-30T08:24:18;8.00;84.40
3734;HTU21D;1882;52.256;8.874;2024-01-30T08:26:47;8.00;84.40
3734;HTU21D;1882;52.256;8.874;2024-01-30T08:29:15;8.00;84.10
3734;HTU21D;1882;52.256;8.874;2024-01-30T08:31:42;8.00;84.00
3734;HTU21D;1882;52.256;8.874;2024-01-30T08:34:11;8.10;83.80
3734;HTU21D;1882;52.256;8.874;2024-01-30T08:36:37;8.20;84.10
3734;HTU21D;1882;52.256;8.874;2024-01-30T08:39:04;8.30;83.00
3734;HTU21D;1882;52.256;8.874;2024-01-30T08:41:32;8.30;82.50
3734;HTU21D;1882;52.256;8.874;2024-01-30T08:43:59;8.40;82.70
3734;HTU21D;1882;52.256;8.874;2024-01-30T08:46:26;8.40;82.60
3734;HTU21D;1882;52.256;8.874;2024-01-30T08:48:53;8.40;82.60
3734;HTU21D;1882;52.256;8.874;2024-01-30T08:51:20;8.40;82.70
3734;HTU21D;1882;52.256;8.874;2024-01-30T08:53:47;8.50;82.40
3734;HTU21D;1882;52.256;8.874;2024-01-30T08:56:14;8.60;81.90
3734;HTU21D;1882;52.256;8.874;2024-01-30T08:58:42;8.60;81.90
3734;HTU21D;1882;52.256;8.874;2024-01-30T09:01:09;8.50;81.10
3734;HTU21D;1882;52.256;8.874;2024-01-30T09:03:36;8.60;81.20
3734;HTU21D;1882;52.256;8.874;2024-01-30T09:06:11;8.60;81.50
3734;HTU21D;1882;52.256;8.874;2024-01-30T09:08:38;8.60;82.20
3734;HTU21D;1882;52.256;8.874;2024-01-30T09:11:13;8.80;81.80
3734;HTU21D;1882;52.256;8.874;2024-01-30T09:13:40;8.90;81.10
3734;HTU21D;1882;52.256;8.874;2024-01-30T09:16:08;9.10;81.10
3734;HTU21D;1882;52.256;8.874;2024-01-30T09:18:35;9.30;80.50
3734;HTU21D;1882;52.256;8.874;2024-01-30T09:21:02;9.40;79.50
3734;HTU21D;1882;52.256;8.874;2024-01-30T09:23:29;9.50;78.70
3734;HTU21D;1882;52.256;8.874;2024-01-30T09:25:56;9.50;77.80
3734;HTU21D;1882;52.256;8.874;2024-01-30T09:28:23;9.50;78.00
3734;HTU21D;1882;52.256;8.874;2024-01-30T09:30:53;9.50;78.60
3734;HTU21D;1882;52.256;8.874;2024-01-30T09:33:20;9.40;78.30
3734;HTU21D;1882;52.256;8.874;2024-01-30T09:35:47;9.40;77.40
3734;HTU21D;1882;52.256;8.874;2024-01-30T09:38:14;9.40;79.00
3734;HTU21D;1882;52.256;8.874;2024-01-30T09:40:41;9.50;79.20
3734;HTU21D;1882;52.256;8.874;2024-01-30T09:43:13;9.60;79.40
3734;HTU21D;1882;52.256;8.874;2024-01-30T09:45:44;9.80;78.10
3734;HTU21D;1882;52.256;8.874;2024-01-30T09:48:13;9.80;77.30
3734;HTU21D;1882;52.256;8.874;2024-01-30T09:50:40;9.90;77.20
3734;HTU21D;1882;52.256;8.874;2024-01-30T09:53:08;10.00;75.20
3734;HTU21D;1882;52.256;8.874;2024-01-30T09:55:36;10.10;75.60
3734;HTU21D;1882;52.256;8.874;2024-01-30T09:58:03;10.00;74.80
3734;HTU21D;1882;52.256;8.874;2024-01-30T10:00:30;10.10;75.40
3734;HTU21D;1882;52.256;8.874;2024-01-30T10:02:57;10.20;77.00
3734;HTU21D;1882;52.256;8.874;2024-01-30T10:05:27;10.20;76.00
3734;HTU21D;1882;52.256;8.874;2024-01-30T10:07:56;10.20;75.70
3734;HTU21D;1882;52.256;8.874;2024-01-30T10:10:24;10.20;75.10
3734;HTU21D;1882;52.256;8.874;2024-01-30T10:12:51;10.20;75.40
3734;HTU21D;1882;52.256;8.874;2024-01-30T10:15:18;10.20;75.50
3734;HTU21D;1882;52.256;8.874;2024-01-30T10:17:46;10.30;75.40
3734;HTU21D;1882;52.256;8.874;2024-01-30T10:20:13;10.30;74.90
3734;HTU21D;1882;52.256;8.874;2024-01-30T10:22:41;10.40;74.50
3734;HTU21D;1882;52.256;8.874;2024-01-30T10:25:11;10.40;75.40
3734;HTU21D;1882;52.256;8.874;2024-01-30T10:27:39;10.40;75.30
3734;HTU21D;1882;52.256;8.874;2024-01-30T10:30:07;10.50;74.90
3734;HTU21D;1882;52.256;8.874;2024-01-30T10:32:35;10.50;74.70
3734;HTU21D;1882;52.256;8.874;2024-01-30T10:35:02;10.60;74.70
3734;HTU21D;1882;52.256;8.874;2024-01-30T10:37:30;10.60;73.90
3734;HTU21D;1882;52.256;8.874;2024-01-30T10:40:02;10.60;74.70
3734;HTU21D;1882;52.256;8.874;2024-01-30T10:42:33;10.70;74.30
3734;HTU21D;1882;52.256;8.874;2024-01-30T10:45:07;10.80;74.70
3734;HTU21D;1882;52.256;8.874;2024-01-30T10:47:43;10.80;74.50
3734;HTU21D;1882;52.256;8.874;2024-01-30T10:50:10;10.90;75.20
3734;HTU21D;1882;52.256;8.874;2024-01-30T10:52:39;10.90;73.60
3734;HTU21D;1882;52.256;8.874;2024-01-30T10:55:08;10.90;73.50
3734;HTU21D;1882;52.256;8.874;2024-01-30T10:57:36;11.00;74.20
3734;HTU21D;1882;52.256;8.874;2024-01-30T11:00:14;11.00;74.30
3734;HTU21D;1882;52.256;8.874;2024-01-30T11:02:46;11.10;73.90
3734;HTU21D;1882;52.256;8.874;2024-01-30T11:05:14;11.10;73.70
3734;HTU21D;1882;52.256;8.874;2024-01-30T11:07:42;11.20;73.50
3734;HTU21D;1882;52.256;8.874;2024-01-30T11:10:12;11.20;73.80
3734;HTU21D;1882;52.256;8.874;2024-01-30T11:12:42;11.30;73.90
3734;HTU21D;1882;52.256;8.874;2024-01-30T11:15:13;11.30;73.00
3734;HTU21D;1882;52.256;8.874;2024-01-30T11:17:53;11.40;73.90
3734;HTU21D;1882;52.256;8.874;2024-01-30T11:20:22;11.50;73.20
3734;HTU21D;1882;52.256;8.874;2024-01-30T11:22:52;11.50;72.40
3734;HTU21D;1882;52.256;8.874;2024-01-30T11:25:20;11.60;74.10
3734;HTU21D;1882;52.256;8.874;2024-01-30T11:27:51;11.70;73.30
3734;HTU21D;1882;52.256;8.874;2024-01-30T11:30:25;11.70;73.00
3734;HTU21D;1882;52.256;8.874;2024-01-30T11:33:05;11.80;73.00
3734;HTU21D;1882;52.256;8.874;2024-01-30T11:35:44;11.90;71.80
3734;HTU21D;1882;52.256;8.874;2024-01-30T11:38:14;12.00;74.20
3734;HTU21D;1882;52.256;8.874;2024-01-30T11:40:41;12.00;73.30
3734;HTU21D;1882;52.256;8.874;2024-01-30T11:43:09;12.10;71.20
3734;HTU21D;1882;52.256;8.874;2024-01-30T11:45:36;12.10;72.30
3734;HTU21D;1882;52.256;8.874;2024-01-30T11:48:04;12.20;71.70
3734;HTU21D;1882;52.256;8.874;2024-01-30T11:50:33;12.30;72.40
3734;HTU21D;1882;52.256;8.874;2024-01-30T11:53:01;12.20;72.30
3734;HTU21D;1882;52.256;8.874;2024-01-30T11:55:31;12.10;72.10
3734;HTU21D;1882;52.256;8.874;2024-01-30T11:58:01;12.10;73.00
3734;HTU21D;1882;52.256;8.874;2024-01-30T12:00:30;12.30;73.30
3734;HTU21D;1882;52.256;8.874;2024-01-30T12:03:01;12.30;72.50
3734;HTU21D;1882;52.256;8.874;2024-01-30T12:05:29;12.50;73.10
3734;HTU21D;1882;52.256;8.874;2024-01-30T12:07:56;12.40;72.00
3734;HTU21D;1882;52.256;8.874;2024-01-30T12:10:27;12.50;72.90
3734;HTU21D;1882;52.256;8.874;2024-01-30T12:12:54;12.60;72.90
3734;HTU21D;1882;52.256;8.874;2024-01-30T12:15:22;12.60;72.60
3734;HTU21D;1882;52.256;8.874;2024-01-30T12:17:49;12.70;72.10
3734;HTU21D;1882;52.256;8.874;2024-01-30T12:20:20;12.80;72.00
3734;HTU21D;1882;52.256;8.874;2024-01-30T12:22:49;12.90;73.20
3734;HTU21D;1882;52.256;8.874;2024-01-30T12:25:20;12.80;71.40
3734;HTU21D;1882;52.256;8.874;2024-01-30T12:27:49;12.80;72.50
3734;HTU21D;1882;52.256;8.874;2024-01-30T12:30:18;12.80;72.40
3734;HTU21D;1882;52.256;8.874;2024-01-30T12:32:47;12.90;72.90
3734;HTU21D;1882;52.256;8.874;2024-01-30T12:35:19;12.90;72.30
3734;HTU21D;1882;52.256;8.874;2024-01-30T12:37:47;12.90;71.80
3734;HTU21D;1882;52.256;8.874;2024-01-30T12:40:15;13.00;72.30
3734;HTU21D;1882;52.256;8.874;2024-01-30T12:42:43;13.00;72.60
3734;HTU21D;1882;52.256;8.874;2024-01-30T12:45:13;13.00;71.50
3734;HTU21D;1882;52.256;8.874;2024-01-30T12:47:42;13.00;72.10
3734;HTU21D;1882;52.256;8.874;2024-01-30T12:50:09;13.00;71.90
3734;HTU21D;1882;52.256;8.874;2024-01-30T12:52:37;12.90;71.90
3734;HTU21D;1882;52.256;8.874;2024-01-30T12:55:04;12.90;72.80
3734;HTU21D;1882;52.256;8.874;2024-01-30T12:57:31;12.80;73.00
3734;HTU21D;1882;52.256;8.874;2024-01-30T12:59:58;12.70;73.00
3734;HTU21D;1882;52.256;8.874;2024-01-30T13:02:25;12.70;73.50
3734;HTU21D;1882;52.256;8.874;2024-01-30T13:04:54;12.70;74.00
3734;HTU21D;1882;52.256;8.874;2024-01-30T13:07:21;12.70;73.60
3734;HTU21D;1882;52.256;8.874;2024-01-30T13:09:48;12.60;73.30
3734;HTU21D;1882;52.256;8.874;2024-01-30T13:12:15;12.60;74.40
3734;HTU21D;1882;52.256;8.874;2024-01-30T13:14:42;12.50;74.20
3734;HTU21D;1882;52.256;8.874;2024-01-30T13:17:09;12.50;74.40
3734;HTU21D;1882;52.256;8.874;2024-01-30T13:19:36;12.50;74.90
3734;HTU21D;1882;52.256;8.874;2024-01-30T13:22:03;12.50;75.00
3734;HTU21D;1882;52.256;8.874;2024-01-30T13:24:30;12.50;75.10
3734;HTU21D;1882;52.256;8.874;2024-01-30T13:26:57;12.50;74.70
3734;HTU21D;1882;52.256;8.874;2024-01-30T13:29:24;12.50;75.00
3734;HTU21D;1882;52.256;8.874;2024-01-30T13:31:51;12.60;75.60
3734;HTU21D;1882;52.256;8.874;2024-01-30T13:34:18;12.50;75.40
3734;HTU21D;1882;52.256;8.874;2024-01-30T13:36:45;12.50;75.60
3734;HTU21D;1882;52.256;8.874;2024-01-30T13:39:12;12.50;76.30
3734;HTU21D;1882;52.256;8.874;2024-01-30T13:41:41;12.50;76.00
3734;HTU21D;1882;52.256;8.874;2024-01-30T13:44:08;12.50;76.70
3734;HTU21D;1882;52.256;8.874;2024-01-30T13:46:36;12.50;76.10
3734;HTU21D;1882;52.256;8.874;2024-01-30T13:49:03;12.40;76.20
3734;HTU21D;1882;52.256;8.874;2024-01-30T13:51:30;12.40;76.90
3734;HTU21D;1882;52.256;8.874;2024-01-30T13:53:57;12.50;77.00
3734;HTU21D;1882;52.256;8.874;2024-01-30T13:56:24;12.50;76.90
3734;HTU21D;1882;52.256;8.874;2024-01-30T13:58:52;12.50;76.70
3734;HTU21D;1882;52.256;8.874;2024-01-30T14:01:19;12.50;76.60
3734;HTU21D;1882;52.256;8.874;2024-01-30T14:03:46;12.50;77.30
3734;HTU21D;1882;52.256;8.874;2024-01-30T14:06:13;12.60;77.60
3734;HTU21D;1882;52.256;8.874;2024-01-30T14:08:41;12.50;76.70
3734;HTU21D;1882;52.256;8.874;2024-01-30T14:11:13;12.60;76.30
3734;HTU21D;1882;52.256;8.874;2024-01-30T14:13:41;12.60;76.00
3734;HTU21D;1882;52.256;8.874;2024-01-30T14:16:07;12.60;76.30
3734;HTU21D;1882;52.256;8.874;2024-01-30T14:18:34;12.50;76.20
3734;HTU21D;1882;52.256;8.874;2024-01-30T14:21:01;12.50;76.00
3734;HTU21D;1882;52.256;8.874;2024-01-30T14:23:28;12.50;76.30
3734;HTU21D;1882;52.256;8.874;2024-01-30T14:25:55;12.40;76.90
3734;HTU21D;1882;52.256;8.874;2024-01-30T14:28:22;12.40;76.70
3734;HTU21D;1882;52.256;8.874;2024-01-30T14:30:49;12.40;76.90
3734;HTU21D;1882;52.256;8.874;2024-01-30T14:33:16;12.30;77.90
3734;HTU21D;1882;52.256;8.874;2024-01-30T14:35:43;12.30;77.50
3734;HTU21D;1882;52.256;8.874;2024-01-30T14:38:10;12.30;78.30
3734;HTU21D;1882;52.256;8.874;2024-01-30T14:40:38;12.30;78.00
3734;HTU21D;1882;52.256;8.874;2024-01-30T14:43:05;12.20;79.00
3734;HTU21D;1882;52.256;8.874;2024-01-30T14:45:32;12.20;78.70
3734;HTU21D;1882;52.256;8.874;2024-01-30T14:47:59;12.20;79.00
3734;HTU21D;1882;52.256;8.874;2024-01-30T14:50:27;12.20;78.90
3734;HTU21D;1882;52.256;8.874;2024-01-30T14:52:55;12.20;79.30
3734;HTU21D;1882;52.256;8.874;2024-01-30T14:55:22;12.10;79.80
3734;HTU21D;1882;52.256;8.874;2024-01-30T14:57:49;12.10;80.40
3734;HTU21D;1882;52.256;8.874;2024-01-30T15:00:16;12.10;80.80
3734;HTU21D;1882;52.256;8.874;2024-01-30T15:02:44;12.10;81.00
3734;HTU21D;1882;52.256;8.874;2024-01-30T15:05:13;12.20;81.30
3734;HTU21D;1882;52.256;8.874;2024-01-30T15:07:40;12.20;81.10
3734;HTU21D;1882;52.256;8.874;2024-01-30T15:10:08;12.20;81.80
3734;HTU21D;1882;52.256;8.874;2024-01-30T15:12:37;12.20;81.90
3734;HTU21D;1882;52.256;8.874;2024-01-30T15:15:07;12.20;82.40
3734;HTU21D;1882;52.256;8.874;2024-01-30T15:17:36;12.20;82.30
3734;HTU21D;1882;52.256;8.874;2024-01-30T15:20:03;12.10;82.60
3734;HTU21D;1882;52.256;8.874;2024-01-30T15:22:31;12.10;83.00
3734;HTU21D;1882;52.256;8.874;2024-01-30T15:24:58;12.10;82.50
3734;HTU21D;1882;52.256;8.874;2024-01-30T15:27:25;12.10;83.00
3734;HTU21D;1882;52.256;8.874;2024-01-30T15:29:56;12.10;83.00
3734;HTU21D;1882;52.256;8.874;2024-01-30T15:32:22;12.00;82.90
3734;HTU21D;1882;52.256;8.874;2024-01-30T15:34:49;12.00;82.40
3734;HTU21D;1882;52.256;8.874;2024-01-30T15:37:17;12.10;82.50
3734;HTU21D;1882;52.256;8.874;2024-01-30T15:39:44;12.00;81.80
3734;HTU21D;1882;52.256;8.874;2024-01-30T15:42:11;12.20;81.20
3734;HTU21D;1882;52.256;8.874;2024-01-30T15:44:39;12.10;80.60
3734;HTU21D;1882;52.256;8.874;2024-01-30T15:47:06;12.00;81.00
3734;HTU21D;1882;52.256;8.874;2024-01-30T15:49:32;12.00;81.20
3734;HTU21D;1882;52.256;8.874;2024-01-30T15:51:59;12.00;81.00
3734;HTU21D;1882;52.256;8.874;2024-01-30T15:54:27;11.90;81.00
3734;HTU21D;1882;52.256;8.874;2024-01-30T15:56:54;11.90;81.40